Harrison, Montana
Current Conditions -  °F | °C
As of 2:56 PM on Thursday 27 Nov 2014 (Local Time) from KBZN Reporting Station
Overcast Overcast  
Wind Chill: 51°   Ceiling: 8000
Heat Index: 51°   Visibility: 10mi
Dew Point: 30°   Wind: 7mph
Humidity: 44%   Direction: 120°ESE
Pressure: 29.94"   Gusts: NA
Location:  45.7°N, 111.78°W
Report Text: KBZN 272156Z 12006KT 10SM OVC080 11/M01 A2994 RMK AO2 SLP143 T01061011 $
Loading
Personal Weather Stations






























Interactive Weather Map New forecast layout! Learn more

10-Day Weather Forecast

Advertisements
Track Severe Weather on mobile